Moutfort, Luxembourg
Current Conditions -  °F | °C
As of 4:50 AM on Tuesday 23 Dec 2014 (Local Time) from ELLX Reporting Station
Broken Clouds Broken Clouds  
Wind Chill: 38°   Ceiling: 400
Heat Index: 45°   Visibility: 3mi
Dew Point: 43°   Wind: 13mph
Humidity: 93%   Direction: 230°SW
Pressure: 30.21"   Gusts: NA
Location:  49.59°N, 6.26°E
Report Text: ELLX 230350Z 23011KT 200V260 5000 BKN004 07/06 Q1023 NOSIG
Loading
Personal Weather Stations






























Interactive Weather Map New forecast layout! Learn more

10-Day Weather Forecast

Advertisements
Track Severe Weather on mobile